עמוד ראשי
METAR-TAF:

METAR-TAF

שדות תעופה :

Dundee, סקוטלנד

קו רוחב: 56-27N, קו אורך: 003-01W, גובה: 4מטר

תצפית מזג אוויר נוכחית

הדו"ח נערך לפני 54דקות, בשעה 14:50 UTC
רוח 28קשר מכיוון מערב עם משבים עד 42קשר
טמפרטורת 10 צלסיוס
לחות 76%
לחץ 1007 hPa
ראות 10 קילומטר או יותר
עננים פזורים בגובה 3500רגל
ממטרים במרחב,

METAR: EGPN 131450Z 28028G42KT 9999 VCSH SCT035 10/06 Q1007 RESHRA

זמן: 16:44 (15:44 UTC)

תחזית

הדו"ח נערך לפני 4 שעות ו 48דקות, בשעה 10:56 UTC
תחזית בתוקף מ 13 ב 12 UTC עד 13 ב 15 UTC
רוח 20קשר מכיוון דרום-מערב עם משבים עד 34קשר
ראות 10 קילומטר או יותר
מעט עננים בגובה 3000רגל
יעשה מ
13 ב 12 UTC עד 13 ב 15 UTC
רוח 20קשר מכיוון מערב עם משבים עד 30קשר
זמנית מ -
13 ב 12 UTC עד 13 ב 15 UTC
ראות: 6000מטר
ממטרי גשם
הסתברות 30% :
זמנית מ -
13 ב 12 UTC עד 13 ב 15 UTC
רוח 28קשר מכיוון מערב עם משבים עד 40קשר
ראות: 3000מטר
עננים בינוניים בגובה 1200רגל
ממטרי גשם כבדים,

TAF: EGPN 131056Z 1312/1315 23020G34KT 9999 FEW030 BECMG 1312/1315 26020G30KT TEMPO 1312/1315 6000 SHRA PROB30 TEMPO 1312/1315 27028G40KT 3000 +SHRA BKN012

תצפיות ותחזיות מזג אוויר לגבי יותר מ- 4,000 שדות תעופה ברחבי העולם. דוחות METAR ו- TAF.

התחנות הזמינות מסומנות בנקודות צהובות ואדומות על גבי המפה.

העבר את העכבר לנקודה הצבעונית על מנת לראות את שם התחנה.

לאחר מכן, לחץ כדי לראות את תוכן ואת תחזיות מזג האוויר.

כדי לשנות את המפה: לחץ על הכפתורים הירוקים עם הפלוס השחור כדי להתקרב; על הכפתור הירוק עם המקף כדי להתרחק; או בחיצים הירוקים למפות סמוכות.


METAR-TAF: